CheckWX is a tool to help pilots better visualize weather data.  It is not intended as a substitute for an official pre-flight weather briefing.

21:43:39 UTC

KTTN TAF
Trenton Mercer Airport Airport
Trenton, NJ, USA
KTTN 092324Z 1000/1024 13007KT P6SM SCT040 BKN250 FM100800 08008KT P6SM VCSH SCT010 OVC015 FM101200 06010KT 4SM SHRA BR SCT007 OVC010 FM101600 05012G20KT 2SM +SHRA BR OVC008 FM102100 02010G17KT 4SM SHRA BR OVC010

Jul-10@
00:00 UTC

Jul-10 @ 00:00 UTC

Jul-10@
08:00 UTC

Jul-10 @ 08:00 UTC

TAF KTTN 092324Z 1000/1024 13007KT P6SM SCT040 BKN250

Expired

Wind
  • 130° at 7 KTS
Cloud Levels
  • Scattered at 4,000' AGL
  • Broken at 25,000' AGL

Jul-10@
08:00 UTC

Jul-10 @ 08:00 UTC

Jul-10@
12:00 UTC

Jul-10 @ 12:00 UTC

FM100800 08008KT P6SM VCSH SCT010 OVC015

Expired

Wind
  • 080° at 8 KTS
Conditions
Area Showers
Cloud Levels
  • Scattered at 1,000' AGL
  • Overcast at 1,500' AGL

Jul-10@
12:00 UTC

Jul-10 @ 12:00 UTC

Jul-10@
16:00 UTC

Jul-10 @ 16:00 UTC

FM101200 06010KT 4SM SHRA BR SCT007 OVC010

Expired

Wind
  • 060° at 10 KTS
Conditions
Showers, Rain, Mist
Cloud Levels
  • Scattered at 700' AGL
  • Overcast at 1,000' AGL

Jul-10@
16:00 UTC

Jul-10 @ 16:00 UTC

Jul-10@
21:00 UTC

Jul-10 @ 21:00 UTC

FM101600 05012G20KT 2SM +SHRA BR OVC008

Expired

Wind
  • 050° at 12 KTS
  • {Gusting to 20 KTS
Conditions
Heavy Showers, Rain, Mist
Cloud Levels
  • Overcast at 800' AGL

Jul-10@
21:00 UTC

Jul-10 @ 21:00 UTC

Jul-11@
00:00 UTC

Jul-11 @ 00:00 UTC

FM102100 02010G17KT 4SM SHRA BR OVC010

From

From Standard forecast or significant change

Wind
  • 020° at 10 KTS
  • {Gusting to 17 KTS
Conditions
Showers, Rain, Mist
Cloud Levels
  • Overcast at 1,000' AGL